Terminal Aerodrome Forecast
Issued by NWS

Home | Current Version | Previous Version | Graphics & Text | Print | Product List | Glossary On
Versions: 1 2 3 4 5 6 7 8 9 10 11 12 13 14 15 16 17 18 19 20
838
FTUS43 KLOT 241120
TAFDPA
TAF
KDPA 241120Z 2412/2512 19007KT P6SM SCT250
     FM241500 20012KT P6SM SCT050 BKN250
     FM250100 20006KT P6SM BKN250
     FM250800 19004KT 5SM BR SCT025 BKN050=

USA.gov is the U.S. government's official web portal to all federal, state and local government web resources and services.